Aviation Digital Data Service (ADDS)

Output produced by METARs form (1906 UTC 25 June 2017)
found at http://www.aviationweather.gov/adds/metars/
 
MPPA 251900Z 03006KT 9000 FEW016 BKN300 32/// Q1012
TAF MPPA 251700Z 2518/2624 30006KT 9999 FEW017 BKN100 
     PROB30 
     TEMPO 2519/2523 29008KT 6000 TSRA SCT015CB BKN080 
     BECMG 2523/2603 VRB02KT 9999 SCT020 SCT100
       
MPBO 251900Z VRB02KT 9999 SCT018 BKN090 Q1013
MPDA 251900Z 18008KT 9999 SCT015 30/25 Q1011
TAF MPDA 251700Z 2518/2606 180006KT 9999 SCT018 
     PROB30 
     TEMPO 2521/2601 7000 -TSRA SCT17CB BKN090
       
MPMG 251900Z 34007KT 310V040 9999 FEW018 SCT090 31/25 Q1010 NOSIG
TAF MPMG 251700Z 2518/2606 30005KT 9999 SCT018 BKN100 
     PROB30 
     TEMPO 2519/2523 7000 -TSRA SCT017CB BKN090 
     TEMPO 2523/2603 00000KT 9999 FEW020 SCT100
       
MPTO 251900Z 19005KT 9000 SCT018TCU BKN090 31/26 Q1012 NOSIG
TAF MPTO 251700Z 2518/2624 02004KT 9999 SCT018 BKN100 
     PROB30 
     TEMPO 2519/2523 6000 -TSRA SCT016CB BKN090 
     BECMG 2523/2603 25006KT 9999 SCT018 SCT090